sensor_id;sensor_type;location;lat;lon;timestamp;P1;durP1;ratioP1;P2;durP2;ratioP2
66721;SDS011;53633;49.932;10.884;2024-02-16T10:25:22;9.47;;;4.20;;
66721;SDS011;53633;49.932;10.884;2024-02-16T10:27:49;9.73;;;4.65;;
66721;SDS011;53633;49.932;10.884;2024-02-16T10:30:16;10.15;;;5.18;;
66721;SDS011;53633;49.932;10.884;2024-02-16T10:32:43;8.43;;;4.35;;
66721;SDS011;53633;49.932;10.884;2024-02-16T10:35:10;9.63;;;4.60;;
66721;SDS011;53633;49.932;10.884;2024-02-16T10:37:37;9.30;;;4.30;;
66721;SDS011;53633;49.932;10.884;2024-02-16T10:40:04;8.20;;;4.28;;
66721;SDS011;53633;49.932;10.884;2024-02-16T10:42:35;10.23;;;4.90;;
66721;SDS011;53633;49.932;10.884;2024-02-16T10:45:03;10.45;;;4.13;;
66721;SDS011;53633;49.932;10.884;2024-02-16T10:47:31;8.45;;;4.55;;
66721;SDS011;53633;49.932;10.884;2024-02-16T10:49:58;11.47;;;4.47;;
66721;SDS011;53633;49.932;10.884;2024-02-16T10:52:25;10.85;;;4.80;;
66721;SDS011;53633;49.932;10.884;2024-02-16T10:54:52;9.20;;;4.53;;
66721;SDS011;53633;49.932;10.884;2024-02-16T10:57:19;11.75;;;4.53;;
66721;SDS011;53633;49.932;10.884;2024-02-16T10:59:47;9.95;;;4.90;;
66721;SDS011;53633;49.932;10.884;2024-02-16T11:02:14;10.93;;;4.70;;
66721;SDS011;53633;49.932;10.884;2024-02-16T11:04:45;9.68;;;4.78;;
66721;SDS011;53633;49.932;10.884;2024-02-16T11:07:15;10.15;;;4.57;;
66721;SDS011;53633;49.932;10.884;2024-02-16T11:09:43;10.75;;;4.60;;
66721;SDS011;53633;49.932;10.884;2024-02-16T11:12:11;9.68;;;4.78;;
66721;SDS011;53633;49.932;10.884;2024-02-16T11:14:39;10.47;;;4.47;;
66721;SDS011;53633;49.932;10.884;2024-02-16T11:17:08;8.48;;;4.30;;
66721;SDS011;53633;49.932;10.884;2024-02-16T11:19:36;9.45;;;4.80;;
66721;SDS011;53633;49.932;10.884;2024-02-16T11:22:03;9.52;;;4.72;;
66721;SDS011;53633;49.932;10.884;2024-02-16T11:24:31;8.13;;;4.22;;
66721;SDS011;53633;49.932;10.884;2024-02-16T11:26:58;8.83;;;4.20;;
66721;SDS011;53633;49.932;10.884;2024-02-16T11:29:28;8.95;;;4.30;;
66721;SDS011;53633;49.932;10.884;2024-02-16T11:31:58;12.43;;;4.75;;
66721;SDS011;53633;49.932;10.884;2024-02-16T11:34:27;9.30;;;4.38;;
66721;SDS011;53633;49.932;10.884;2024-02-16T11:36:54;8.35;;;4.32;;
66721;SDS011;53633;49.932;10.884;2024-02-16T11:39:22;10.27;;;4.53;;
66721;SDS011;53633;49.932;10.884;2024-02-16T11:41:58;9.52;;;4.47;;
66721;SDS011;53633;49.932;10.884;2024-02-16T11:44:25;10.63;;;5.15;;
66721;SDS011;53633;49.932;10.884;2024-02-16T11:46:53;9.05;;;4.50;;
66721;SDS011;53633;49.932;10.884;2024-02-16T11:49:19;10.40;;;4.57;;
66721;SDS011;53633;49.932;10.884;2024-02-16T11:51:48;8.60;;;3.97;;
66721;SDS011;53633;49.932;10.884;2024-02-16T11:54:15;7.95;;;3.28;;
66721;SDS011;53633;49.932;10.884;2024-02-16T11:56:42;11.07;;;4.70;;
66721;SDS011;53633;49.932;10.884;2024-02-16T11:59:10;9.40;;;3.75;;
66721;SDS011;53633;49.932;10.884;2024-02-16T12:01:47;10.05;;;4.30;;
66721;SDS011;53633;49.932;10.884;2024-02-16T12:04:19;8.47;;;3.80;;
66721;SDS011;53633;49.932;10.884;2024-02-16T12:06:48;9.75;;;4.22;;
66721;SDS011;53633;49.932;10.884;2024-02-16T12:09:18;11.20;;;4.18;;
66721;SDS011;53633;49.932;10.884;2024-02-16T12:11:45;10.43;;;3.97;;
66721;SDS011;53633;49.932;10.884;2024-02-16T12:14:13;7.80;;;3.88;;
66721;SDS011;53633;49.932;10.884;2024-02-16T12:16:41;9.50;;;4.27;;
66721;SDS011;53633;49.932;10.884;2024-02-16T12:19:08;13.63;;;3.88;;
66721;SDS011;53633;49.932;10.884;2024-02-16T12:21:35;8.20;;;3.70;;
66721;SDS011;53633;49.932;10.884;2024-02-16T12:24:03;8.18;;;3.97;;
66721;SDS011;53633;49.932;10.884;2024-02-16T12:26:30;11.05;;;3.92;;
66721;SDS011;53633;49.932;10.884;2024-02-16T12:28:57;7.43;;;3.40;;
66721;SDS011;53633;49.932;10.884;2024-02-16T12:31:27;8.20;;;3.58;;
66721;SDS011;53633;49.932;10.884;2024-02-16T12:33:53;8.35;;;3.92;;
66721;SDS011;53633;49.932;10.884;2024-02-16T12:36:20;6.85;;;3.67;;
66721;SDS011;53633;49.932;10.884;2024-02-16T12:38:47;7.82;;;3.90;;
66721;SDS011;53633;49.932;10.884;2024-02-16T12:41:15;7.80;;;3.67;;
66721;SDS011;53633;49.932;10.884;2024-02-16T12:43:42;7.90;;;3.70;;
66721;SDS011;53633;49.932;10.884;2024-02-16T12:46:09;8.55;;;4.13;;
66721;SDS011;53633;49.932;10.884;2024-02-16T12:48:36;9.32;;;3.80;;
66721;SDS011;53633;49.932;10.884;2024-02-16T12:51:03;11.68;;;4.63;;
66721;SDS011;53633;49.932;10.884;2024-02-16T12:53:30;11.70;;;4.63;;
66721;SDS011;53633;49.932;10.884;2024-02-16T12:55:56;9.00;;;4.32;;
66721;SDS011;53633;49.932;10.884;2024-02-16T12:58:24;19.67;;;7.55;;
66721;SDS011;53633;49.932;10.884;2024-02-16T13:00:51;14.20;;;5.40;;
66721;SDS011;53633;49.932;10.884;2024-02-16T13:03:18;13.18;;;5.30;;
66721;SDS011;53633;49.932;10.884;2024-02-16T13:05:44;13.70;;;4.60;;
66721;SDS011;53633;49.932;10.884;2024-02-16T13:08:11;8.65;;;3.95;;
66721;SDS011;53633;49.932;10.884;2024-02-16T13:10:38;9.82;;;3.65;;
66721;SDS011;53633;49.932;10.884;2024-02-16T13:13:05;7.28;;;3.40;;
66721;SDS011;53633;49.932;10.884;2024-02-16T13:15:33;10.10;;;3.65;;
66721;SDS011;53633;49.932;10.884;2024-02-16T13:17:59;11.37;;;3.80;;
66721;SDS011;53633;49.932;10.884;2024-02-16T13:20:26;6.63;;;3.40;;
66721;SDS011;53633;49.932;10.884;2024-02-16T13:22:53;7.60;;;3.63;;
66721;SDS011;53633;49.932;10.884;2024-02-16T13:25:20;7.22;;;3.20;;
66721;SDS011;53633;49.932;10.884;2024-02-16T13:27:46;9.07;;;3.65;;
66721;SDS011;53633;49.932;10.884;2024-02-16T13:30:13;7.80;;;3.40;;
66721;SDS011;53633;49.932;10.884;2024-02-16T13:32:42;8.90;;;3.78;;
66721;SDS011;53633;49.932;10.884;2024-02-16T13:35:08;8.80;;;3.45;;
66721;SDS011;53633;49.932;10.884;2024-02-16T13:37:35;7.30;;;3.80;;
66721;SDS011;53633;49.932;10.884;2024-02-16T13:40:02;7.45;;;3.10;;
66721;SDS011;53633;49.932;10.884;2024-02-16T13:42:29;6.80;;;3.50;;
66721;SDS011;53633;49.932;10.884;2024-02-16T13:44:56;7.85;;;4.28;;
66721;SDS011;53633;49.932;10.884;2024-02-16T13:47:23;7.68;;;3.00;;
66721;SDS011;53633;49.932;10.884;2024-02-16T13:49:51;7.63;;;3.47;;
66721;SDS011;53633;49.932;10.884;2024-02-16T13:52:18;7.60;;;3.55;;
66721;SDS011;53633;49.932;10.884;2024-02-16T13:54:45;7.30;;;3.80;;
66721;SDS011;53633;49.932;10.884;2024-02-16T13:57:11;8.27;;;3.70;;
66721;SDS011;53633;49.932;10.884;2024-02-16T13:59:38;9.15;;;3.78;;
66721;SDS011;53633;49.932;10.884;2024-02-16T14:02:05;11.13;;;3.97;;
66721;SDS011;53633;49.932;10.884;2024-02-16T14:04:32;8.75;;;4.05;;
66721;SDS011;53633;49.932;10.884;2024-02-16T14:07:00;7.50;;;3.40;;
66721;SDS011;53633;49.932;10.884;2024-02-16T14:09:27;11.85;;;4.72;;
66721;SDS011;53633;49.932;10.884;2024-02-16T14:11:59;11.13;;;5.78;;
66721;SDS011;53633;49.932;10.884;2024-02-16T14:14:26;8.15;;;4.43;;
66721;SDS011;53633;49.932;10.884;2024-02-16T14:17:03;9.45;;;4.75;;
66721;SDS011;53633;49.932;10.884;2024-02-16T14:19:30;7.83;;;3.60;;
66721;SDS011;53633;49.932;10.884;2024-02-16T14:21:57;8.02;;;3.25;;
66721;SDS011;53633;49.932;10.884;2024-02-16T14:24:25;8.05;;;3.10;;
66721;SDS011;53633;49.932;10.884;2024-02-16T14:26:52;9.05;;;3.30;;
66721;SDS011;53633;49.932;10.884;2024-02-16T14:29:20;9.13;;;4.10;;
66721;SDS011;53633;49.932;10.884;2024-02-16T14:31:47;7.07;;;3.03;;
66721;SDS011;53633;49.932;10.884;2024-02-16T14:34:14;10.40;;;3.30;;
66721;SDS011;53633;49.932;10.884;2024-02-16T14:36:41;8.90;;;3.47;;
66721;SDS011;53633;49.932;10.884;2024-02-16T14:39:07;7.45;;;3.50;;
66721;SDS011;53633;49.932;10.884;2024-02-16T14:41:35;8.73;;;3.80;;
66721;SDS011;53633;49.932;10.884;2024-02-16T14:44:02;10.13;;;4.27;;
66721;SDS011;53633;49.932;10.884;2024-02-16T14:46:29;9.77;;;4.18;;
66721;SDS011;53633;49.932;10.884;2024-02-16T14:48:56;9.02;;;4.38;;
66721;SDS011;53633;49.932;10.884;2024-02-16T14:51:23;8.25;;;4.10;;
66721;SDS011;53633;49.932;10.884;2024-02-16T14:53:49;10.13;;;5.55;;
66721;SDS011;53633;49.932;10.884;2024-02-16T14:56:16;10.50;;;5.83;;
66721;SDS011;53633;49.932;10.884;2024-02-16T14:58:44;10.00;;;5.28;;
66721;SDS011;53633;49.932;10.884;2024-02-16T15:01:11;8.38;;;4.18;;
66721;SDS011;53633;49.932;10.884;2024-02-16T15:03:38;7.53;;;3.53;;
66721;SDS011;53633;49.932;10.884;2024-02-16T15:06:05;8.63;;;3.67;;
66721;SDS011;53633;49.932;10.884;2024-02-16T15:08:32;7.77;;;3.77;;
66721;SDS011;53633;49.932;10.884;2024-02-16T15:10:59;9.95;;;4.93;;
66721;SDS011;53633;49.932;10.884;2024-02-16T15:13:26;10.20;;;4.45;;
66721;SDS011;53633;49.932;10.884;2024-02-16T15:15:54;9.25;;;3.65;;
66721;SDS011;53633;49.932;10.884;2024-02-16T15:18:20;8.07;;;3.75;;
66721;SDS011;53633;49.932;10.884;2024-02-16T15:20:48;9.17;;;4.73;;
66721;SDS011;53633;49.932;10.884;2024-02-16T15:23:18;11.45;;;3.75;;
66721;SDS011;53633;49.932;10.884;2024-02-16T15:25:45;13.48;;;5.15;;
66721;SDS011;53633;49.932;10.884;2024-02-16T15:28:12;8.32;;;3.55;;
66721;SDS011;53633;49.932;10.884;2024-02-16T15:30:39;11.65;;;3.47;;
66721;SDS011;53633;49.932;10.884;2024-02-16T15:33:07;7.47;;;3.33;;
66721;SDS011;53633;49.932;10.884;2024-02-16T15:35:34;11.85;;;6.65;;
66721;SDS011;53633;49.932;10.884;2024-02-16T15:38:02;11.23;;;5.22;;
66721;SDS011;53633;49.932;10.884;2024-02-16T15:40:29;10.18;;;5.03;;
66721;SDS011;53633;49.932;10.884;2024-02-16T15:42:59;12.00;;;4.65;;
66721;SDS011;53633;49.932;10.884;2024-02-16T15:45:26;10.03;;;4.60;;
66721;SDS011;53633;49.932;10.884;2024-02-16T15:47:52;9.45;;;4.00;;
66721;SDS011;53633;49.932;10.884;2024-02-16T15:50:22;7.80;;;3.72;;
66721;SDS011;53633;49.932;10.884;2024-02-16T15:52:49;8.13;;;3.83;;
66721;SDS011;53633;49.932;10.884;2024-02-16T15:55:16;11.35;;;5.32;;
66721;SDS011;53633;49.932;10.884;2024-02-16T15:57:42;10.93;;;4.37;;
66721;SDS011;53633;49.932;10.884;2024-02-16T16:00:09;9.82;;;4.68;;
66721;SDS011;53633;49.932;10.884;2024-02-16T16:02:37;10.85;;;4.43;;
66721;SDS011;53633;49.932;10.884;2024-02-16T16:05:03;7.95;;;3.35;;
66721;SDS011;53633;49.932;10.884;2024-02-16T16:07:32;8.90;;;3.70;;
66721;SDS011;53633;49.932;10.884;2024-02-16T16:09:59;9.10;;;3.80;;
66721;SDS011;53633;49.932;10.884;2024-02-16T16:12:26;11.68;;;4.40;;
66721;SDS011;53633;49.932;10.884;2024-02-16T16:14:52;14.57;;;5.82;;
66721;SDS011;53633;49.932;10.884;2024-02-16T16:17:19;14.50;;;5.35;;
66721;SDS011;53633;49.932;10.884;2024-02-16T16:19:48;10.13;;;4.47;;
66721;SDS011;53633;49.932;10.884;2024-02-16T16:22:15;44.53;;;13.97;;
66721;SDS011;53633;49.932;10.884;2024-02-16T16:24:44;38.25;;;11.32;;
66721;SDS011;53633;49.932;10.884;2024-02-16T16:27:11;24.83;;;8.77;;
66721;SDS011;53633;49.932;10.884;2024-02-16T16:29:37;15.95;;;6.47;;
66721;SDS011;53633;49.932;10.884;2024-02-16T16:32:05;13.07;;;5.18;;
66721;SDS011;53633;49.932;10.884;2024-02-16T16:34:32;13.23;;;5.93;;
66721;SDS011;53633;49.932;10.884;2024-02-16T16:36:59;10.80;;;5.50;;
66721;SDS011;53633;49.932;10.884;2024-02-16T16:39:26;16.52;;;6.38;;
66721;SDS011;53633;49.932;10.884;2024-02-16T16:41:54;12.93;;;6.43;;
66721;SDS011;53633;49.932;10.884;2024-02-16T16:44:21;15.88;;;6.35;;
66721;SDS011;53633;49.932;10.884;2024-02-16T16:46:48;13.10;;;5.60;;
66721;SDS011;53633;49.932;10.884;2024-02-16T16:49:14;15.30;;;7.03;;
66721;SDS011;53633;49.932;10.884;2024-02-16T16:51:41;16.83;;;7.25;;
66721;SDS011;53633;49.932;10.884;2024-02-16T16:54:08;12.68;;;6.00;;
66721;SDS011;53633;49.932;10.884;2024-02-16T16:56:35;15.18;;;6.80;;
66721;SDS011;53633;49.932;10.884;2024-02-16T16:59:03;14.10;;;6.63;;
66721;SDS011;53633;49.932;10.884;2024-02-16T17:01:30;13.93;;;5.97;;
66721;SDS011;53633;49.932;10.884;2024-02-16T17:03:57;14.65;;;6.55;;
